^^
Station Historical Data
Daily Summary for February 21, 2017 Units:  English    Metric   Both
« Previous Day
Next Day »
Daily Weekly Monthly Yearly Custom
  High: Low: Average:
Temperature: 49.1 °F 27.8 °F 39.2 °F
Dew Point: 34.5 °F 16.5 °F 25.8 °F
Humidity: 75 % 45 % 59 %
Wind Speed: 9.1 mph 0.0 mph 1.9 mph
Wind Gust: 13.8 mph - -
Wind:- - SSE
Pressure: 30.40 in 30.13 in -
Precipitation: 0.00 in    
Historical Graphs
 
 
Tabular Data for February 21, 2017
Time Temperature Dew Point Pressure Wind Wind Speed Wind Gust Humidity Rainfall Rate (Hourly) solar Conditions
00:02 35.8 °F 16.5 °F 30.37 in NNE 2.6 mph 3.5 mph 45 % 0.00 in 0.0 W/m2 CLR
00:07 35.6 °F 16.8 °F 30.37 in NNE 3.3 mph 4.6 mph 46 % 0.00 in 0.0 W/m2 CLR
00:12 35.7 °F 16.9 °F 30.37 in NNE 1.2 mph 4.6 mph 46 % 0.00 in 0.0 W/m2 CLR
00:17 35.4 °F 17.1 °F 30.37 in Calm     47 % 0.00 in 0.0 W/m2 CLR
00:22 35.3 °F 17.1 °F 30.37 in NNE 1.6 mph 3.5 mph 47 % 0.00 in 0.0 W/m2 CLR
00:27 35.0 °F 16.8 °F 30.38 in NNE 1.9 mph 3.5 mph 47 % 0.00 in 0.0 W/m2 CLR
00:33 35.1 °F 16.9 °F 30.37 in Calm     47 % 0.00 in 0.0 W/m2 CLR
00:38 35.0 °F 17.3 °F 30.37 in Calm     48 % 0.00 in 0.0 W/m2 CLR
00:43 34.7 °F 17.0 °F 30.37 in Calm     48 % 0.00 in 0.0 W/m2 CLR
00:48 34.4 °F 17.2 °F 30.37 in NNE 1.6 mph 3.5 mph 49 % 0.00 in 0.0 W/m2 CLR
00:53 34.5 °F 17.8 °F 30.37 in NNE 3.3 mph 3.5 mph 50 % 0.00 in 0.0 W/m2 CLR
00:58 34.3 °F 17.6 °F 30.37 in NNE 4.0 mph 4.6 mph 50 % 0.00 in 0.0 W/m2 CLR
01:03 34.3 °F 18.0 °F 30.37 in Calm     51 % 0.00 in 0.0 W/m2 CLR
01:08 34.2 °F 17.9 °F 30.36 in NE 0.6 mph 2.3 mph 51 % 0.00 in 0.0 W/m2 CLR
01:13 34.2 °F 17.9 °F 30.36 in NE 0.5 mph 1.2 mph 51 % 0.00 in 0.0 W/m2 CLR
01:18 34.0 °F 18.2 °F 30.36 in Calm     52 % 0.00 in 0.0 W/m2 CLR
01:23 34.1 °F 18.3 °F 30.36 in Calm     52 % 0.00 in 0.0 W/m2 CLR
01:28 34.1 °F 18.3 °F 30.36 in Calm     52 % 0.00 in 0.0 W/m2 CLR
01:33 34.1 °F 18.3 °F 30.36 in NE 0.1 mph 1.2 mph 52 % 0.00 in 0.0 W/m2 CLR
01:38 34.1 °F 18.3 °F 30.36 in Calm     52 % 0.00 in 0.0 W/m2 CLR
01:43 34.2 °F 18.4 °F 30.37 in Calm     52 % 0.00 in 0.0 W/m2 CLR
01:48 33.7 °F 18.4 °F 30.37 in Calm     53 % 0.00 in 0.0 W/m2 CLR
01:53 33.1 °F 18.2 °F 30.36 in Calm     54 % 0.00 in 0.0 W/m2 CLR
01:58 32.9 °F 18.5 °F 30.36 in Calm   1.2 mph 55 % 0.00 in 0.0 W/m2 CLR
02:03 32.5 °F 18.9 °F 30.35 in NE 0.9 mph 2.3 mph 57 % 0.00 in 0.0 W/m2 CLR
02:08 32.9 °F 18.9 °F 30.35 in Calm     56 % 0.00 in 0.0 W/m2 CLR
02:13 32.7 °F 18.7 °F 30.35 in Calm     56 % 0.00 in 0.0 W/m2 CLR
02:18 32.9 °F 18.5 °F 30.36 in Calm     55 % 0.00 in 0.0 W/m2 CLR
02:23 33.0 °F 18.6 °F 30.36 in Calm     55 % 0.00 in 0.0 W/m2 CLR
02:28 32.5 °F 18.5 °F 30.36 in Calm     56 % 0.00 in 0.0 W/m2 CLR
02:39 31.0 °F 19.1 °F 30.35 in Calm     61 % 0.00 in 0.0 W/m2 CLR
02:44 31.2 °F 18.9 °F 30.35 in Calm     60 % 0.00 in 0.0 W/m2 CLR
02:49 31.6 °F 18.9 °F 30.36 in Calm     59 % 0.00 in 0.0 W/m2 CLR
02:54 32.3 °F 19.2 °F 30.36 in Calm     58 % 0.00 in 0.0 W/m2 CLR
02:59 31.4 °F 19.1 °F 30.36 in Calm     60 % 0.00 in 0.0 W/m2 CLR
03:04 30.5 °F 19.0 °F 30.36 in Calm     62 % 0.00 in 0.0 W/m2 CLR
03:09 30.3 °F 19.2 °F 30.36 in Calm     63 % 0.00 in 0.0 W/m2 CLR
03:14 30.2 °F 19.1 °F 30.36 in Calm     63 % 0.00 in 0.0 W/m2 CLR
03:19 30.2 °F 19.1 °F 30.36 in Calm     63 % 0.00 in 0.0 W/m2 CLR
03:24 30.1 °F 19.4 °F 30.37 in Calm     64 % 0.00 in 0.0 W/m2 CLR
03:29 29.7 °F 19.4 °F 30.36 in Calm     65 % 0.00 in 0.0 W/m2 CLR
03:34 29.9 °F 19.6 °F 30.36 in Calm     65 % 0.00 in 0.0 W/m2 CLR
03:39 30.1 °F 19.4 °F 30.36 in Calm     64 % 0.00 in 0.0 W/m2 CLR
03:44 30.2 °F 19.5 °F 30.36 in Calm     64 % 0.00 in 0.0 W/m2 CLR
03:49 30.2 °F 19.1 °F 30.36 in Calm     63 % 0.00 in 0.0 W/m2 CLR
03:54 30.3 °F 18.8 °F 30.37 in Calm     62 % 0.00 in 0.0 W/m2 CLR
03:59 30.4 °F 19.3 °F 30.37 in Calm     63 % 0.00 in 0.0 W/m2 CLR
04:04 29.9 °F 19.6 °F 30.37 in Calm     65 % 0.00 in 0.0 W/m2 CLR
04:09 29.4 °F 19.4 °F 30.38 in Calm     66 % 0.00 in 0.0 W/m2 CLR
04:14 29.0 °F 19.4 °F 30.37 in Calm     67 % 0.00 in 0.0 W/m2 CLR
04:19 28.6 °F 19.4 °F 30.38 in Calm     68 % 0.00 in 0.0 W/m2 CLR
04:24 28.6 °F 19.7 °F 30.38 in Calm     69 % 0.00 in 0.0 W/m2 CLR
04:29 28.7 °F 19.8 °F 30.38 in Calm     69 % 0.00 in 0.0 W/m2 CLR
04:34 28.9 °F 20.0 °F 30.38 in Calm     69 % 0.00 in 0.0 W/m2 CLR
04:39 28.9 °F 20.0 °F 30.38 in Calm     69 % 0.00 in 0.0 W/m2 CLR
04:44 29.0 °F 19.8 °F 30.38 in NE 0.1 mph 1.0 mph 68 % 0.00 in 0.0 W/m2 CLR
04:49 28.9 °F 19.7 °F 30.37 in Calm     68 % 0.00 in 0.0 W/m2 CLR
04:55 28.9 °F 19.7 °F 30.37 in NE 1.6 mph 2.3 mph 68 % 0.00 in 0.0 W/m2 CLR
05:00 29.5 °F 19.9 °F 30.37 in NNE 0.7 mph 3.5 mph 67 % 0.00 in 0.0 W/m2 CLR
05:05 29.6 °F 19.6 °F 30.37 in NNE 0.5 mph 1.0 mph 66 % 0.00 in 0.0 W/m2 CLR
05:10 29.8 °F 19.5 °F 30.37 in Calm     65 % 0.00 in 0.0 W/m2 CLR
05:15 29.9 °F 19.2 °F 30.38 in Calm     64 % 0.00 in 0.0 W/m2 CLR
05:20 30.1 °F 19.4 °F 30.38 in Calm     64 % 0.00 in 0.0 W/m2 CLR
05:25 30.0 °F 18.9 °F 30.38 in Calm     63 % 0.00 in 0.0 W/m2 CLR
05:30 29.8 °F 19.1 °F 30.38 in Calm     64 % 0.00 in 0.0 W/m2 CLR
05:35 28.8 °F 18.9 °F 30.39 in Calm     66 % 0.00 in 0.0 W/m2 CLR
05:40 28.3 °F 19.1 °F 30.39 in Calm     68 % 0.00 in 0.0 W/m2 CLR
05:45 28.0 °F 19.5 °F 30.38 in Calm     70 % 0.00 in 0.0 W/m2 CLR
05:50 28.1 °F 19.6 °F 30.38 in Calm     70 % 0.00 in 0.0 W/m2 CLR
05:55 28.4 °F 19.9 °F 30.38 in Calm     70 % 0.00 in 0.0 W/m2 CLR
06:00 28.2 °F 19.3 °F 30.38 in Calm     69 % 0.00 in 0.0 W/m2 CLR
06:05 28.0 °F 19.5 °F 30.37 in Calm     70 % 0.00 in 0.0 W/m2 CLR
06:10 28.1 °F 19.6 °F 30.38 in Calm     70 % 0.00 in 0.0 W/m2 CLR
06:15 28.1 °F 19.6 °F 30.38 in Calm     70 % 0.00 in 0.0 W/m2 CLR
06:20 28.2 °F 19.7 °F 30.38 in Calm     70 % 0.00 in 0.0 W/m2 CLR
06:25 28.1 °F 19.6 °F 30.38 in Calm     70 % 0.00 in 0.0 W/m2 CLR
06:30 28.2 °F 20.0 °F 30.38 in Calm     71 % 0.00 in 0.0 W/m2 CLR
06:35 28.4 °F 19.9 °F 30.38 in Calm     70 % 0.00 in 0.0 W/m2 CLR
06:40 28.5 °F 20.0 °F 30.38 in Calm     70 % 0.00 in 0.0 W/m2 CLR
06:45 28.4 °F 20.2 °F 30.38 in Calm     71 % 0.00 in 5.0 W/m2 CLR
06:50 28.2 °F 20.0 °F 30.39 in Calm     71 % 0.00 in 5.0 W/m2 CLR
06:55 28.2 °F 20.0 °F 30.39 in Calm     71 % 0.00 in 9.0 W/m2 CLR
07:00 28.2 °F 20.0 °F 30.39 in Calm     71 % 0.00 in 16.0 W/m2 CLR
07:05 28.0 °F 19.8 °F 30.40 in Calm     71 % 0.00 in 23.0 W/m2 CLR
07:10 27.8 °F 19.9 °F 30.39 in Calm     72 % 0.00 in 30.0 W/m2 CLR
07:15 27.9 °F 20.4 °F 30.39 in Calm     73 % 0.00 in 39.0 W/m2 CLR
07:20 27.9 °F 20.4 °F 30.39 in Calm     73 % 0.00 in 49.0 W/m2 CLR
07:25 28.0 °F 20.5 °F 30.39 in Calm     73 % 0.00 in 56.0 W/m2 CLR
07:30 28.4 °F 20.8 °F 30.39 in Calm     73 % 0.00 in 60.0 W/m2 CLR
07:35 28.9 °F 21.0 °F 30.39 in Calm     72 % 0.00 in 63.0 W/m2 CLR
07:40 29.4 °F 21.5 °F 30.40 in Calm     72 % 0.00 in 67.0 W/m2 CLR
07:45 29.8 °F 21.5 °F 30.40 in Calm     71 % 0.00 in 70.0 W/m2 CLR
07:50 30.2 °F 21.6 °F 30.40 in Calm     70 % 0.00 in 74.0 W/m2 FEW
07:55 30.8 °F 20.8 °F 30.40 in Calm     66 % 0.00 in 81.0 W/m2 FEW
08:00 31.3 °F 20.2 °F 30.40 in Calm     63 % 0.00 in 107.0 W/m2 CLR
08:06 31.6 °F 20.1 °F 30.40 in Calm     62 % 0.00 in 121.0 W/m2 CLR
08:11 31.6 °F 19.7 °F 30.40 in Calm     61 % 0.00 in 135.0 W/m2 CLR
08:16 32.1 °F 19.8 °F 30.39 in Calm     60 % 0.00 in 163.0 W/m2 CLR
08:21 32.7 °F 20.3 °F 30.39 in Calm   2.3 mph 60 % 0.00 in 176.0 W/m2 CLR
08:26 32.9 °F 20.1 °F 30.39 in NNE 0.8 mph 3.5 mph 59 % 0.00 in 148.0 W/m2 CLR
08:31 32.9 °F 20.1 °F 30.39 in NNE 1.3 mph 3.5 mph 59 % 0.00 in 163.0 W/m2 FEW
08:36 33.2 °F 20.4 °F 30.39 in NNE 2.7 mph 4.0 mph 59 % 0.00 in 195.0 W/m2 CLR
08:41 33.4 °F 19.8 °F 30.38 in Calm     57 % 0.00 in 188.0 W/m2 CLR
08:46 33.8 °F 19.7 °F 30.39 in Calm   2.3 mph 56 % 0.00 in 206.0 W/m2 CLR
08:51 34.4 °F 19.5 °F 30.38 in NNE 1.6 mph 3.5 mph 54 % 0.00 in 165.0 W/m2 FEW
08:56 34.1 °F 19.2 °F 30.39 in Calm     54 % 0.00 in 153.0 W/m2 SCT
09:01 34.3 °F 19.4 °F 30.38 in NNE 1.7 mph 2.3 mph 54 % 0.00 in 137.0 W/m2 SCT
09:06 34.6 °F 19.6 °F 30.38 in NNE 1.2 mph 2.3 mph 54 % 0.00 in 130.0 W/m2 BKN
09:11 34.8 °F 20.3 °F 30.39 in Calm     55 % 0.00 in 156.0 W/m2 SCT
09:16 35.1 °F 20.1 °F 30.38 in Calm     54 % 0.00 in 221.0 W/m2 FEW
09:21 35.5 °F 19.6 °F 30.38 in Calm     52 % 0.00 in 357.0 W/m2 CLR
09:26 35.8 °F 19.9 °F 30.37 in Calm   1.2 mph 52 % 0.00 in 408.0 W/m2 CLR
09:31 36.1 °F 20.2 °F 30.37 in NNE 2.0 mph 4.0 mph 52 % 0.00 in 271.0 W/m2 FEW
09:36 36.3 °F 20.3 °F 30.36 in NE 0.9 mph 2.3 mph 52 % 0.00 in 294.0 W/m2 CLR
09:41 36.5 °F 20.5 °F 30.37 in Calm   1.2 mph 52 % 0.00 in 332.0 W/m2 CLR
09:46 36.8 °F 20.8 °F 30.36 in NNE 0.5 mph 3.5 mph 52 % 0.00 in 323.0 W/m2 CLR
09:51 37.2 °F 21.6 °F 30.36 in NNE 0.1 mph 1.2 mph 53 % 0.00 in 294.0 W/m2 FEW
09:56 37.3 °F 21.7 °F 30.35 in Calm   1.2 mph 53 % 0.00 in 257.0 W/m2 FEW
10:01 37.4 °F 21.4 °F 30.36 in Calm   2.3 mph 52 % 0.00 in 250.0 W/m2 SCT
10:06 38.0 °F 22.4 °F 30.36 in Calm     53 % 0.00 in 244.0 W/m2 SCT
10:11 38.2 °F 22.6 °F 30.36 in East 0.6 mph 2.3 mph 53 % 0.00 in 239.0 W/m2 SCT
10:16 37.8 °F 22.6 °F 30.36 in South 0.3 mph 3.0 mph 54 % 0.00 in 396.0 W/m2 FEW
10:21 38.6 °F 23.8 °F 30.35 in South 0.6 mph 2.3 mph 55 % 0.00 in 531.0 W/m2 CLR
10:24 39.1 °F 24.3 °F 30.35 in SSE 1.7 mph 3.5 mph 55 % 0.00 in 520.0 W/m2 CLR
10:29 39.5 °F 24.7 °F 30.36 in Calm   3.5 mph 55 % 0.00 in 364.0 W/m2 CLR
10:34 39.5 °F 25.1 °F 30.36 in Calm     56 % 0.00 in 388.0 W/m2 CLR
10:39 39.9 °F 26.3 °F 30.36 in South 3.3 mph 4.6 mph 58 % 0.00 in 373.0 W/m2 FEW
10:44 39.9 °F 25.9 °F 30.35 in SSE 2.1 mph 3.5 mph 57 % 0.00 in 353.0 W/m2 FEW
10:49 40.7 °F 27.1 °F 30.36 in SSE 0.1 mph 3.5 mph 58 % 0.00 in 352.0 W/m2 FEW
10:54 41.0 °F 27.8 °F 30.35 in SSW 5.0 mph 6.9 mph 59 % 0.00 in 381.0 W/m2 FEW
10:59 41.2 °F 27.9 °F 30.35 in South 0.8 mph 3.5 mph 59 % 0.00 in 373.0 W/m2 FEW
11:04 41.6 °F 28.3 °F 30.35 in SSE 3.2 mph 5.0 mph 59 % 0.00 in 323.0 W/m2 SCT
11:09 41.8 °F 28.5 °F 30.35 in South 6.5 mph 8.1 mph 59 % 0.00 in 334.0 W/m2 SCT
11:14 41.8 °F 28.9 °F 30.34 in SSE 1.2 mph 3.5 mph 60 % 0.00 in 366.0 W/m2 FEW
11:19 42.2 °F 28.9 °F 30.34 in South 2.6 mph 6.0 mph 59 % 0.00 in 431.0 W/m2 FEW
11:25 43.3 °F 29.9 °F 30.34 in South 6.5 mph 9.2 mph 59 % 0.00 in 429.0 W/m2 CLR
11:30 43.0 °F 29.6 °F 30.34 in SSW 6.6 mph 11.5 mph 59 % 0.00 in 360.0 W/m2 FEW
11:35 43.2 °F 29.4 °F 30.33 in SSW 5.6 mph 9.2 mph 58 % 0.00 in 323.0 W/m2 SCT
11:40 43.0 °F 28.8 °F 30.33 in SSW 7.5 mph 7.5 mph 57 % 0.00 in 302.0 W/m2 SCT
11:45 43.0 °F 29.2 °F 30.32 in South 6.5 mph 8.1 mph 58 % 0.00 in 311.0 W/m2 SCT
11:50 43.3 °F 29.1 °F 30.32 in SSE 5.1 mph 12.7 mph 57 % 0.00 in 316.0 W/m2 SCT
11:55 43.2 °F 29.0 °F 30.32 in South 5.5 mph 10.0 mph 57 % 0.00 in 329.0 W/m2 SCT
12:00 43.1 °F 28.9 °F 30.32 in South 4.5 mph 8.1 mph 57 % 0.00 in 343.0 W/m2 SCT
12:05 43.3 °F 29.1 °F 30.32 in South 4.6 mph 8.1 mph 57 % 0.00 in 329.0 W/m2 SCT
12:10 43.4 °F 28.7 °F 30.31 in SW 6.9 mph 9.2 mph 56 % 0.00 in 320.0 W/m2 SCT
12:15 43.2 °F 28.1 °F 30.31 in SW 5.4 mph 9.2 mph 55 % 0.00 in 306.0 W/m2 SCT
12:20 43.1 °F 28.0 °F 30.31 in SSW 4.9 mph 9.2 mph 55 % 0.00 in 369.0 W/m2 SCT
12:25 43.5 °F 28.8 °F 30.31 in SSW 2.0 mph 9.0 mph 56 % 0.00 in 397.0 W/m2 SCT
12:30 43.8 °F 28.2 °F 30.31 in SSW 4.2 mph 10.4 mph 54 % 0.00 in 448.0 W/m2 FEW
12:35 44.2 °F 29.0 °F 30.30 in South 4.6 mph 10.4 mph 55 % 0.00 in 547.0 W/m2 CLR
12:40 44.3 °F 28.7 °F 30.30 in South 7.8 mph 10.4 mph 54 % 0.00 in 682.0 W/m2 CLR
12:45 44.6 °F 28.0 °F 30.29 in SSW 6.7 mph 8.0 mph 52 % 0.00 in 605.0 W/m2 CLR
12:50 45.1 °F 28.5 °F 30.29 in SW 5.5 mph 9.2 mph 52 % 0.00 in 469.0 W/m2 CLR
12:55 45.0 °F 28.4 °F 30.29 in SSW 4.4 mph 8.1 mph 52 % 0.00 in 471.0 W/m2 CLR
13:00 45.0 °F 28.4 °F 30.28 in SSW 9.1 mph 10.0 mph 52 % 0.00 in 336.0 W/m2 SCT
13:05 44.8 °F 28.2 °F 30.28 in SSW 3.3 mph 4.0 mph 52 % 0.00 in 329.0 W/m2 SCT
13:10 44.9 °F 28.8 °F 30.27 in SSE 1.9 mph 3.5 mph 53 % 0.00 in 316.0 W/m2 SCT
13:15 45.4 °F 28.8 °F 30.27 in South 7.5 mph 10.4 mph 52 % 0.00 in 325.0 W/m2 SCT
13:20 45.5 °F 28.9 °F 30.26 in South 4.5 mph 6.9 mph 52 % 0.00 in 399.0 W/m2 FEW
13:25 45.9 °F 29.2 °F 30.26 in South 3.5 mph 6.9 mph 52 % 0.00 in 482.0 W/m2 CLR
13:30 46.2 °F 28.6 °F 30.25 in SSE 5.6 mph 10.4 mph 50 % 0.00 in 480.0 W/m2 CLR
13:35 46.5 °F 29.3 °F 30.25 in South 2.7 mph 3.5 mph 51 % 0.00 in 503.0 W/m2 CLR
13:40 46.9 °F 29.7 °F 30.24 in SE 3.5 mph 5.8 mph 51 % 0.00 in 454.0 W/m2 CLR
13:45 47.5 °F 29.8 °F 30.24 in South 4.0 mph 9.2 mph 50 % 0.00 in 387.0 W/m2 CLR
13:50 46.8 °F 29.6 °F 30.24 in SE 1.2 mph 3.0 mph 51 % 0.00 in 457.0 W/m2 CLR
13:55 47.0 °F 29.8 °F 30.25 in SSW 4.9 mph 6.9 mph 51 % 0.00 in 459.0 W/m2 CLR
14:00 47.5 °F 29.8 °F 30.25 in South 1.9 mph 5.8 mph 50 % 0.00 in 422.0 W/m2 CLR
14:05 47.6 °F 29.9 °F 30.25 in SSE 1.1 mph 5.8 mph 50 % 0.00 in 366.0 W/m2 CLR
14:10 47.3 °F 30.5 °F 30.25 in Calm     52 % 0.00 in 378.0 W/m2 FEW
14:15 47.6 °F 30.3 °F 30.24 in South 3.7 mph 9.2 mph 51 % 0.00 in 345.0 W/m2 FEW
14:20 48.0 °F 30.7 °F 30.24 in South 3.6 mph 4.6 mph 51 % 0.00 in 371.0 W/m2 FEW
14:25 48.6 °F 30.8 °F 30.24 in SSW 5.8 mph 8.1 mph 50 % 0.00 in 234.0 W/m2 SCT
14:30 48.1 °F 30.8 °F 30.24 in SSE 1.1 mph 3.5 mph 51 % 0.00 in 179.0 W/m2 BKN
14:32 48.0 °F 30.7 °F 30.23 in SSW 3.4 mph 6.0 mph 51 % 0.00 in 167.0 W/m2 BKN
14:37 48.0 °F 30.7 °F 30.23 in South 5.8 mph 8.1 mph 51 % 0.00 in 174.0 W/m2 BKN
14:42 47.7 °F 30.4 °F 30.23 in SSW 9.1 mph 10.4 mph 51 % 0.00 in 174.0 W/m2 BKN
14:47 47.7 °F 30.4 °F 30.24 in SSW 4.1 mph 10.4 mph 51 % 0.00 in 162.0 W/m2 BKN
14:52 48.0 °F 30.2 °F 30.23 in SSW 5.9 mph 8.1 mph 50 % 0.00 in 171.0 W/m2 BKN
14:58 47.9 °F 29.6 °F 30.23 in SSE 5.0 mph 5.8 mph 49 % 0.00 in 169.0 W/m2 BKN
15:03 48.0 °F 29.7 °F 30.22 in South 4.9 mph 6.9 mph 49 % 0.00 in 153.0 W/m2 BKN
15:08 48.0 °F 29.2 °F 30.22 in SSW 5.1 mph 8.1 mph 48 % 0.00 in 160.0 W/m2 BKN
15:13 48.0 °F 29.7 °F 30.22 in South 4.1 mph 10.4 mph 49 % 0.00 in 181.0 W/m2 SCT
15:18 48.2 °F 29.4 °F 30.21 in South 5.4 mph 9.2 mph 48 % 0.00 in 265.0 W/m2 FEW
15:23 48.3 °F 29.5 °F 30.21 in SSE 8.1 mph 9.2 mph 48 % 0.00 in 418.0 W/m2 CLR
15:28 48.7 °F 29.4 °F 30.20 in South 8.3 mph 9.2 mph 47 % 0.00 in 424.0 W/m2 CLR
15:33 49.1 °F 29.7 °F 30.20 in SSE 4.1 mph 4.1 mph 47 % 0.00 in 352.0 W/m2 CLR
15:38 49.1 °F 29.7 °F 30.19 in SSE 7.0 mph 12.7 mph 47 % 0.00 in 345.0 W/m2 CLR
15:43 48.9 °F 29.5 °F 30.19 in South 4.6 mph 4.6 mph 47 % 0.00 in 281.0 W/m2 CLR
15:48 49.0 °F 29.6 °F 30.19 in SSE 5.3 mph 6.9 mph 47 % 0.00 in 200.0 W/m2 FEW
15:53 48.7 °F 29.4 °F 30.20 in SSW 6.7 mph 9.2 mph 47 % 0.00 in 69.0 W/m2 BKN
15:58 48.4 °F 29.1 °F 30.20 in SSW 7.0 mph 9.2 mph 47 % 0.00 in 74.0 W/m2 BKN
16:03 48.5 °F 29.2 °F 30.20 in SSW 3.9 mph 6.0 mph 47 % 0.00 in 76.0 W/m2 BKN
16:08 48.5 °F 29.2 °F 30.19 in SSW 6.1 mph 8.1 mph 47 % 0.00 in 69.0 W/m2 BKN
16:13 48.4 °F 29.1 °F 30.19 in SSE 3.0 mph 5.8 mph 47 % 0.00 in 74.0 W/m2 BKN
16:18 48.2 °F 28.9 °F 30.19 in SSE 4.8 mph 8.1 mph 47 % 0.00 in 77.0 W/m2 BKN
16:23 48.1 °F 28.8 °F 30.19 in SSE 2.4 mph 5.8 mph 47 % 0.00 in 58.0 W/m2 BKN
16:28 48.2 °F 28.4 °F 30.19 in SSE 5.6 mph 8.1 mph 46 % 0.00 in 47.0 W/m2 BKN
16:33 48.1 °F 28.3 °F 30.19 in SSE 6.7 mph 10.4 mph 46 % 0.00 in 51.0 W/m2 BKN
16:38 47.9 °F 27.6 °F 30.19 in SSE 7.5 mph 10.4 mph 45 % 0.00 in 56.0 W/m2 BKN
16:43 47.9 °F 27.6 °F 30.19 in SSW 5.8 mph 9.2 mph 45 % 0.00 in 51.0 W/m2 BKN
16:48 47.9 °F 27.6 °F 30.20 in South 4.2 mph 6.9 mph 45 % 0.00 in 39.0 W/m2 BKN
16:53 47.6 °F 27.8 °F 30.19 in South 5.0 mph 6.9 mph 46 % 0.00 in 32.0 W/m2 BKN
16:58 47.5 °F 27.2 °F 30.19 in SSW 7.9 mph 13.8 mph 45 % 0.00 in 25.0 W/m2 BKN
17:03 47.4 °F 27.6 °F 30.19 in South 5.9 mph 9.2 mph 46 % 0.00 in 19.0 W/m2 OVC
17:08 47.4 °F 27.6 °F 30.19 in South 7.7 mph 11.5 mph 46 % 0.00 in 18.0 W/m2 BKN
17:13 47.3 °F 28.1 °F 30.19 in South 4.8 mph 6.9 mph 47 % 0.00 in 16.0 W/m2 BKN
17:18 47.2 °F 28.0 °F 30.19 in South 2.1 mph 5.0 mph 47 % 0.00 in 16.0 W/m2 BKN
17:23 47.1 °F 28.4 °F 30.19 in SSW 4.7 mph 8.0 mph 48 % 0.00 in 16.0 W/m2 BKN
17:28 47.0 °F 28.8 °F 30.19 in South 4.8 mph 5.8 mph 49 % 0.00 in 12.0 W/m2 SCT
17:33 46.9 °F 28.7 °F 30.19 in South 4.5 mph 5.8 mph 49 % 0.00 in 9.0 W/m2 SCT
17:38 46.8 °F 28.6 °F 30.19 in South 1.8 mph 5.0 mph 49 % 0.00 in 5.0 W/m2 FEW
17:43 46.6 °F 28.9 °F 30.19 in SSW 0.9 mph 4.0 mph 50 % 0.00 in 0.0 W/m2 FEW
17:48 46.5 °F 28.8 °F 30.19 in SSW 2.9 mph 5.0 mph 50 % 0.00 in 0.0 W/m2 FEW
17:53 46.3 °F 28.7 °F 30.19 in South 2.0 mph 4.0 mph 50 % 0.00 in 0.0 W/m2 FEW
17:58 46.1 °F 29.0 °F 30.18 in South 1.0 mph 3.5 mph 51 % 0.00 in 0.0 W/m2 FEW
18:04 46.1 °F 29.0 °F 30.18 in South 2.0 mph 2.3 mph 51 % 0.00 in 0.0 W/m2 FEW
18:09 45.9 °F 28.8 °F 30.18 in South 3.5 mph 6.9 mph 51 % 0.00 in 0.0 W/m2 FEW
18:14 45.7 °F 29.1 °F 30.18 in South 0.4 mph 4.6 mph 52 % 0.00 in 0.0 W/m2 FEW
18:19 45.6 °F 29.0 °F 30.18 in South 1.8 mph 3.5 mph 52 % 0.00 in 0.0 W/m2 FEW
18:24 45.5 °F 29.3 °F 30.19 in South 1.9 mph 3.5 mph 53 % 0.00 in 0.0 W/m2 FEW
18:29 45.4 °F 29.3 °F 30.20 in SSW 2.6 mph 3.5 mph 53 % 0.00 in 0.0 W/m2 FEW
18:34 45.3 °F 29.6 °F 30.20 in SSW 0.2 mph 2.0 mph 54 % 0.00 in 0.0 W/m2 FEW
18:39 45.2 °F 30.0 °F 30.20 in SSW 0.5 mph 3.5 mph 55 % 0.00 in 0.0 W/m2 FEW
18:44 45.1 °F 29.9 °F 30.19 in SSW 2.1 mph 3.5 mph 55 % 0.00 in 0.0 W/m2 FEW
18:49 45.0 °F 30.2 °F 30.18 in SSE 0.5 mph 2.3 mph 56 % 0.00 in 0.0 W/m2 FEW
18:54 44.9 °F 30.6 °F 30.19 in South 1.2 mph 4.6 mph 57 % 0.00 in 0.0 W/m2 FEW
18:59 44.8 °F 30.9 °F 30.19 in South 0.5 mph 3.5 mph 58 % 0.00 in 0.0 W/m2 FEW
19:04 44.6 °F 30.7 °F 30.18 in South 0.5 mph 2.3 mph 58 % 0.00 in 0.0 W/m2 FEW
19:09 44.4 °F 31.0 °F 30.18 in South 1.2 mph 3.5 mph 59 % 0.00 in 0.0 W/m2 FEW
19:14 44.4 °F 31.4 °F 30.19 in South 2.2 mph 3.5 mph 60 % 0.00 in 0.0 W/m2 FEW
19:19 44.4 °F 31.4 °F 30.19 in Calm     60 % 0.00 in 0.0 W/m2 FEW
19:24 44.2 °F 31.6 °F 30.19 in Calm     61 % 0.00 in 0.0 W/m2 FEW
19:29 44.1 °F 31.5 °F 30.18 in SSW 0.1 mph 1.0 mph 61 % 0.00 in 0.0 W/m2 FEW
19:34 44.2 °F 31.6 °F 30.18 in SSW 0.2 mph 2.3 mph 61 % 0.00 in 0.0 W/m2 FEW
19:39 43.8 °F 31.6 °F 30.19 in Calm   2.3 mph 62 % 0.00 in 0.0 W/m2 FEW
19:44 43.7 °F 31.9 °F 30.19 in Calm     63 % 0.00 in 0.0 W/m2 FEW
19:49 43.6 °F 31.8 °F 30.19 in SSW 1.1 mph 3.5 mph 63 % 0.00 in 0.0 W/m2 FEW
19:54 43.6 °F 32.2 °F 30.19 in Calm   3.5 mph 64 % 0.00 in 0.0 W/m2 FEW
19:59 43.7 °F 32.3 °F 30.19 in Calm   1.2 mph 64 % 0.00 in 0.0 W/m2 FEW
20:00 43.7 °F 32.7 °F 30.19 in Calm     65 % 0.00 in 0.0 W/m2 FEW
20:05 43.4 °F 32.4 °F 30.19 in SSW 0.2 mph 2.0 mph 65 % 0.00 in 0.0 W/m2 FEW
20:10 43.6 °F 33.0 °F 30.19 in Calm   1.2 mph 66 % 0.00 in 0.0 W/m2 FEW
20:15 43.6 °F 33.0 °F 30.19 in South 1.2 mph 3.5 mph 66 % 0.00 in 0.0 W/m2 FEW
20:20 43.7 °F 33.1 °F 30.19 in South 2.8 mph 5.0 mph 66 % 0.00 in 0.0 W/m2 FEW
20:25 43.8 °F 33.6 °F 30.19 in South 0.8 mph 3.5 mph 67 % 0.00 in 0.0 W/m2 FEW
20:30 44.0 °F 33.7 °F 30.19 in South 2.4 mph 3.5 mph 67 % 0.00 in 0.0 W/m2 FEW
20:35 43.9 °F 33.6 °F 30.19 in South 2.8 mph 3.5 mph 67 % 0.00 in 0.0 W/m2 FEW
20:40 44.0 °F 33.7 °F 30.19 in SSW 4.6 mph 6.9 mph 67 % 0.00 in 0.0 W/m2 FEW
20:45 44.0 °F 34.1 °F 30.18 in South 5.7 mph 6.9 mph 68 % 0.00 in 0.0 W/m2 FEW
20:50 44.0 °F 34.1 °F 30.18 in SSW 7.2 mph 9.2 mph 68 % 0.00 in 0.0 W/m2 FEW
20:55 44.0 °F 34.1 °F 30.18 in SSW 4.9 mph 6.9 mph 68 % 0.00 in 0.0 W/m2 FEW
21:00 43.9 °F 34.0 °F 30.18 in South 4.9 mph 5.8 mph 68 % 0.00 in 0.0 W/m2 FEW
21:05 43.8 °F 34.3 °F 30.18 in South 6.7 mph 10.4 mph 69 % 0.00 in 0.0 W/m2 FEW
21:10 43.7 °F 34.2 °F 30.18 in South 4.3 mph 8.1 mph 69 % 0.00 in 0.0 W/m2 FEW
21:15 43.6 °F 34.5 °F 30.18 in South 4.6 mph 6.9 mph 70 % 0.00 in 0.0 W/m2 FEW
21:20 43.5 °F 34.4 °F 30.18 in SSW 6.6 mph 10.4 mph 70 % 0.00 in 0.0 W/m2 FEW
21:25 43.4 °F 34.3 °F 30.17 in South 6.1 mph 8.1 mph 70 % 0.00 in 0.0 W/m2 FEW
21:30 43.3 °F 34.2 °F 30.17 in South 6.1 mph 6.9 mph 70 % 0.00 in 0.0 W/m2 FEW
21:35 43.1 °F 34.0 °F 30.17 in SSW 2.4 mph 4.6 mph 70 % 0.00 in 0.0 W/m2 FEW
21:40 43.0 °F 34.2 °F 30.17 in Calm     71 % 0.00 in 0.0 W/m2 FEW
21:45 42.9 °F 34.1 °F 30.17 in Calm     71 % 0.00 in 0.0 W/m2 FEW
21:50 42.8 °F 34.4 °F 30.17 in Calm     72 % 0.00 in 0.0 W/m2 FEW
21:55 42.8 °F 34.4 °F 30.17 in Calm     72 % 0.00 in 0.0 W/m2 FEW
22:01 42.8 °F 34.4 °F 30.16 in Calm     72 % 0.00 in 0.0 W/m2 FEW
22:06 42.7 °F 34.3 °F 30.16 in Calm     72 % 0.00 in 0.0 W/m2 FEW
22:11 42.7 °F 34.3 °F 30.16 in Calm     72 % 0.00 in 0.0 W/m2 FEW
22:16 42.7 °F 34.3 °F 30.16 in Calm     72 % 0.00 in 0.0 W/m2 FEW
22:21 42.6 °F 34.2 °F 30.16 in Calm     72 % 0.00 in 0.0 W/m2 FEW
22:26 42.4 °F 34.0 °F 30.16 in SSW 0.7 mph 2.0 mph 72 % 0.00 in 0.0 W/m2 FEW
22:31 42.2 °F 34.2 °F 30.16 in Calm   1.2 mph 73 % 0.00 in 0.0 W/m2 FEW
22:36 42.2 °F 34.2 °F 30.16 in SSW 1.9 mph 2.3 mph 73 % 0.00 in 0.0 W/m2 FEW
22:41 42.0 °F 34.0 °F 30.15 in SSW 1.6 mph 4.6 mph 73 % 0.00 in 0.0 W/m2 FEW
22:46 42.0 °F 34.0 °F 30.15 in SSW 0.5 mph 3.0 mph 73 % 0.00 in 0.0 W/m2 FEW
22:51 42.1 °F 34.4 °F 30.15 in SSW 0.1 mph 1.2 mph 74 % 0.00 in 0.0 W/m2 FEW
22:56 41.9 °F 34.2 °F 30.15 in Calm     74 % 0.00 in 0.0 W/m2 FEW
23:01 41.9 °F 34.2 °F 30.14 in Calm     74 % 0.00 in 0.0 W/m2 FEW
23:06 42.0 °F 34.3 °F 30.14 in Calm     74 % 0.00 in 0.0 W/m2 FEW
23:11 41.9 °F 34.2 °F 30.14 in Calm   1.0 mph 74 % 0.00 in 0.0 W/m2 FEW
23:16 41.9 °F 34.2 °F 30.14 in SSW 1.1 mph 2.3 mph 74 % 0.00 in 0.0 W/m2 FEW
23:21 41.8 °F 34.1 °F 30.14 in Calm     74 % 0.00 in 0.0 W/m2 FEW
23:26 41.7 °F 34.0 °F 30.14 in Calm     74 % 0.00 in 0.0 W/m2 FEW
23:31 41.7 °F 34.0 °F 30.13 in Calm     74 % 0.00 in 0.0 W/m2 FEW
23:36 41.6 °F 34.3 °F 30.13 in SSW 0.5 mph 3.5 mph 75 % 0.00 in 0.0 W/m2 FEW
23:41 41.8 °F 34.5 °F 30.13 in Calm     75 % 0.00 in 0.0 W/m2 FEW
23:46 41.7 °F 34.0 °F 30.13 in Calm     74 % 0.00 in 0.0 W/m2 FEW
23:51 41.7 °F 34.4 °F 30.13 in SSW 0.3 mph 1.2 mph 75 % 0.00 in 0.0 W/m2 FEW
23:56 41.7 °F 34.4 °F 30.13 in SSW 1.2 mph 3.5 mph 75 % 0.00 in 0.0 W/m2 FEW
Air Products Campus Weather
Compliments of Weather Underground - 3.5 mb